Maersk Dispatcher — XJAJ — position and weather

sailwx.info

Track history (hours):
 
Tides and Currents Weather Stations Pressure Air Temp Water Temp Dewpoint Dewpoint Depression Visibility Wind Speed Wind Dir Waves Ship Positions

Maersk Dispatcher

Last reported at 2014-Jul-30 00:28 UTC. Time now 2014-Jul-31 21:46 UTC.
Position N 47°28' W 052°13'.

Length 89 m; draft 6.9 m.

Type: Other ship. MMSI: 316013080.

Date/timePositionNaut miles runAvg speedWind from/ knotsBaromVisibWave heightAir tempDewpointWater temp
2014-Jul-30 00:28N 47°28' W 052°13'1314.1
2014-Jul-29 23:32N 47°33' W 052°31'8 7.8
2014-Jul-29 22:33N 47°34' W 052°42'0 0.0
2014-Jul-29 21:33N 47°34' W 052°42'0 0.0
2014-Jul-29 20:33N 47°34' W 052°42'0 0.0
2014-Jul-29 19:33N 47°34' W 052°42'0 0.0
2014-Jul-29 18:30N 47°34' W 052°42'0 0.0
2014-Jul-29 17:27N 47°34' W 052°42'0 0.0
2014-Jul-29 16:33N 47°34' W 052°42'0 0.0
2014-Jul-29 15:30N 47°34' W 052°42'0 0.0
2014-Jul-29 14:24N 47°34' W 052°42'0 0.0
2014-Jul-29 13:27N 47°34' W 052°42'0 0.0
2014-Jul-29 12:33N 47°34' W 052°42'0 0.0
2014-Jul-29 11:30N 47°34' W 052°42'0 0.0
2014-Jul-29 10:30N 47°34' W 052°42'0 0.0
2014-Jul-29 09:27N 47°34' W 052°42'0 0.0
2014-Jul-29 08:30N 47°34' W 052°42'0 0.0
2014-Jul-29 07:33N 47°34' W 052°42'0 0.0
2014-Jul-29 06:30N 47°34' W 052°42'0 0.0
2014-Jul-29 05:33N 47°34' W 052°42'0 0.0
2014-Jul-29 04:33N 47°34' W 052°42'0 0.0
2014-Jul-29 03:30N 47°34' W 052°42'0 0.0
2014-Jul-29 02:33N 47°34' W 052°42'0 0.0
2014-Jul-29 01:27N 47°34' W 052°42'0 0.0
2014-Jul-29 00:30N 47°34' W 052°42'0 0.0
2014-Jul-28 23:33N 47°34' W 052°42'0 0.0
2014-Jul-28 22:30N 47°34' W 052°42'0 0.0
2014-Jul-28 21:30N 47°34' W 052°42'0 0.0
2014-Jul-28 20:30N 47°34' W 052°42'4 3.6
2014-Jul-28 19:30N 47°35' W 052°37'0 0.0
2014-Jul-28 18:25N 47°35' W 052°37'1 0.7
2014-Jul-28 17:24N 47°35' W 052°37'0 0.4
2014-Jul-28 16:31N 47°35' W 052°38'0 0.0
2014-Jul-28 15:32N 47°35' W 052°38'0 0.0
2014-Jul-28 14:32N 47°35' W 052°38'3 3.0
2014-Jul-28 13:31N 47°34' W 052°42'0 0.0
2014-Jul-28 12:32N 47°34' W 052°42'0 0.0
2014-Jul-28 11:29N 47°34' W 052°42'0 0.0
2014-Jul-28 10:32N 47°34' W 052°42'0 0.0
2014-Jul-28 09:29N 47°34' W 052°42'0 0.0
2014-Jul-28 08:29N 47°34' W 052°42'0 0.0
2014-Jul-28 07:32N 47°34' W 052°42'0 0.0
2014-Jul-28 06:29N 47°34' W 052°42'0 0.0
2014-Jul-28 05:32N 47°34' W 052°42'0 0.0
2014-Jul-28 04:32N 47°34' W 052°42'0 0.0
2014-Jul-28 03:32N 47°34' W 052°42'0 0.0
2014-Jul-28 02:32N 47°34' W 052°42'0 0.0
2014-Jul-28 01:32N 47°34' W 052°42'0 0.0
2014-Jul-28 00:32N 47°34' W 052°42'0 0.0
2014-Jul-27 23:32N 47°34' W 052°42'0 0.0
2014-Jul-27 22:32N 47°34' W 052°42'0 0.0
2014-Jul-27 21:32N 47°34' W 052°42'0 0.0
2014-Jul-27 20:32N 47°34' W 052°42'0 0.0
2014-Jul-27 19:32N 47°34' W 052°42'0 0.0
2014-Jul-27 18:32N 47°34' W 052°42'0 0.0
2014-Jul-27 17:32N 47°34' W 052°42'0 0.0
2014-Jul-27 16:32N 47°34' W 052°42'0 0.0
2014-Jul-27 15:32N 47°34' W 052°42'7 6.4
2014-Jul-27 14:29N 47°33' W 052°32'1011.3
2014-Jul-27 13:33N 47°30' W 052°17'1413.3
2014-Jul-27 12:31N 47°27' W 051°58'6 0.2
2014-Jul-25 23:20N 47°28' W 052°06'1214.1
2014-Jul-25 22:31N 47°31' W 052°23'1312.9
2014-Jul-25 21:30N 47°34' W 052°42'0 0.3
2014-Jul-25 20:33N 47°34' W 052°42'0 0.0
2014-Jul-25 19:33N 47°34' W 052°42'0 0.0
2014-Jul-25 18:31N 47°34' W 052°42'0 0.0
2014-Jul-25 17:31N 47°34' W 052°42'0 0.0
2014-Jul-25 16:28N 47°34' W 052°42'0 0.0
2014-Jul-25 15:31N 47°34' W 052°42'0 0.0
2014-Jul-25 14:28N 47°34' W 052°42'0 0.0
2014-Jul-25 13:28N 47°34' W 052°42'0 0.0
2014-Jul-25 12:31N 47°34' W 052°42'0 0.0
2014-Jul-25 11:31N 47°34' W 052°42'0 0.0
2014-Jul-25 10:28N 47°34' W 052°42'0 0.0
2014-Jul-25 09:28N 47°34' W 052°42'0 0.0
2014-Jul-25 08:31N 47°34' W 052°42'0 0.0
2014-Jul-25 07:28N 47°34' W 052°42'0 0.0
2014-Jul-25 06:28N 47°34' W 052°42'0 0.0
2014-Jul-25 05:28N 47°34' W 052°42'0 0.0
2014-Jul-25 04:28N 47°34' W 052°42'0 0.0
2014-Jul-25 03:28N 47°34' W 052°42'0 0.0
2014-Jul-25 02:28N 47°34' W 052°42'0 0.0
2014-Jul-25 01:28N 47°34' W 052°42'0 0.0
2014-Jul-25 00:31N 47°34' W 052°42'0 0.0
2014-Jul-24 23:28N 47°34' W 052°42'0 0.0
2014-Jul-24 22:28N 47°34' W 052°42'0 0.0
2014-Jul-24 21:31N 47°34' W 052°42'0 0.0
2014-Jul-24 20:31N 47°34' W 052°42'0 0.0
2014-Jul-24 19:28N 47°34' W 052°42'0 0.0
2014-Jul-24 18:28N 47°34' W 052°42'0 0.0
2014-Jul-24 17:28N 47°34' W 052°42'3 3.1
2014-Jul-24 16:29N 47°33' W 052°38'0 0.2
2014-Jul-24 15:33N 47°33' W 052°38'0 0.0
2014-Jul-24 14:32N 47°33' W 052°38'0 0.1
2014-Jul-24 13:33N 47°33' W 052°38'1 1.1
2014-Jul-24 12:32N 47°33' W 052°40'2 2.2
2014-Jul-24 11:33N 47°34' W 052°42'0 0.0
2014-Jul-24 10:30N 47°34' W 052°42'0 0.2
2014-Jul-24 09:33N 47°34' W 052°42'0 0.0
2014-Jul-24 08:33N 47°34' W 052°42'0 0.0
2014-Jul-24 07:33N 47°34' W 052°42'0 0.0
2014-Jul-24 06:33N 47°34' W 052°42'0 0.0
2014-Jul-24 05:33N 47°34' W 052°42'0 0.0
2014-Jul-24 04:33N 47°34' W 052°42'0 0.0
2014-Jul-24 03:33N 47°34' W 052°42'0 0.0
2014-Jul-24 02:33N 47°34' W 052°42'0 0.0
2014-Jul-24 01:33N 47°34' W 052°42'0 0.0
2014-Jul-24 00:30N 47°34' W 052°42'0 0.0
2014-Jul-23 23:33N 47°34' W 052°42'0 0.0
2014-Jul-23 22:30N 47°34' W 052°42'0 0.0
2014-Jul-23 21:30N 47°34' W 052°42'0 0.0
2014-Jul-23 20:33N 47°34' W 052°42'0 0.0
2014-Jul-23 19:27N 47°34' W 052°42'0 0.0
2014-Jul-23 18:33N 47°34' W 052°42'0 0.0
2014-Jul-23 17:33N 47°34' W 052°42'0 0.0
2014-Jul-23 16:27N 47°34' W 052°42'0 0.0
2014-Jul-23 15:30N 47°34' W 052°42'0 0.0
2014-Jul-23 14:31N 47°34' W 052°42'0 0.2
2014-Jul-23 13:28N 47°34' W 052°42'0 0.0
2014-Jul-23 12:28N 47°34' W 052°42'0 0.0
2014-Jul-23 11:25N 47°34' W 052°42'0 0.0
2014-Jul-23 10:28N 47°34' W 052°42'0 0.2
2014-Jul-23 09:28N 47°34' W 052°42'0 0.0
2014-Jul-23 08:28N 47°34' W 052°42'0 0.0
2014-Jul-23 07:28N 47°34' W 052°42'0 0.0
2014-Jul-23 06:22N 47°34' W 052°42'0 0.0
2014-Jul-23 05:10N 47°34' W 052°42'0 0.0
2014-Jul-23 04:28N 47°34' W 052°42'0 0.0
2014-Jul-23 03:16N 47°34' W 052°42'0 0.0
2014-Jul-23 01:28N 47°34' W 052°42'0 0.0
2014-Jul-23 00:22N 47°34' W 052°42'0 0.0
2014-Jul-22 23:28N 47°34' W 052°42'0 0.0
2014-Jul-22 22:22N 47°34' W 052°42'0 0.0
2014-Jul-22 21:28N 47°34' W 052°42'0 0.0
2014-Jul-22 20:25N 47°34' W 052°42'0 0.0
2014-Jul-22 19:25N 47°34' W 052°42'0 0.0
2014-Jul-22 18:25N 47°34' W 052°42'0 0.0
2014-Jul-22 17:31N 47°34' W 052°42'0 0.0
2014-Jul-22 16:22N 47°34' W 052°42'0 0.0
2014-Jul-22 15:28N 47°34' W 052°42'0 0.0
2014-Jul-22 14:28N 47°34' W 052°42'0 0.0
2014-Jul-22 13:28N 47°34' W 052°42'0 0.0
2014-Jul-22 12:28N 47°34' W 052°42'0 0.0
2014-Jul-22 11:28N 47°34' W 052°42'0 0.0
2014-Jul-22 10:28N 47°34' W 052°42'0 0.0
2014-Jul-22 09:28N 47°34' W 052°42'0 0.0
2014-Jul-22 08:16N 47°34' W 052°42'0 0.0
2014-Jul-22 07:28N 47°34' W 052°42'0 0.0
2014-Jul-22 06:28N 47°34' W 052°42'0 0.0
2014-Jul-22 05:28N 47°34' W 052°42'0 0.0
2014-Jul-22 04:16N 47°34' W 052°42'0 0.0
2014-Jul-22 03:28N 47°34' W 052°42'0 0.0
2014-Jul-22 02:28N 47°34' W 052°42'0 0.0
2014-Jul-22 01:28N 47°34' W 052°42'0 0.0
2014-Jul-22 00:22N 47°34' W 052°42'0 0.0
2014-Jul-21 23:28N 47°34' W 052°42'0 0.0
2014-Jul-21 22:28N 47°34' W 052°42'0 0.0
2014-Jul-21 21:16N 47°34' W 052°42'0 0.0
2014-Jul-21 20:28N 47°34' W 052°42'0 0.0
2014-Jul-21 20:13N 47°34' W 052°42'0 0.4
2014-Jul-21 19:32N 47°34' W 052°42'0 0.0
2014-Jul-21 18:33N 47°34' W 052°42'0 0.2
2014-Jul-21 17:29N 47°34' W 052°42'0 0.0
2014-Jul-21 16:30N 47°34' W 052°42'0 0.0
2014-Jul-21 15:33N 47°34' W 052°42'0 0.0
2014-Jul-21 14:32N 47°34' W 052°42'0 0.0
2014-Jul-21 13:31N 47°34' W 052°42'0 0.0
2014-Jul-21 12:30N 47°34' W 052°42'0 0.0
2014-Jul-21 11:32N 47°34' W 052°42'0 0.0
2014-Jul-21 10:25N 47°34' W 052°42'0 0.0
2014-Jul-21 09:29N 47°34' W 052°42'0 0.0
2014-Jul-21 08:29N 47°34' W 052°42'0 0.0
2014-Jul-21 07:32N 47°34' W 052°42'0 0.0
2014-Jul-21 06:32N 47°34' W 052°42'0 0.0
2014-Jul-21 05:31N 47°34' W 052°42'0 0.0
2014-Jul-21 04:30N 47°34' W 052°42'0 0.0
2014-Jul-21 03:29N 47°34' W 052°42'0 0.0
2014-Jul-21 02:32N 47°34' W 052°42'0 0.0
2014-Jul-21 01:31N 47°34' W 052°42'0 0.0
2014-Jul-21 00:25N 47°34' W 052°42'0 0.0
2014-Jul-20 23:29N 47°34' W 052°42'0 0.0
2014-Jul-20 22:29N 47°34' W 052°42'0 0.4
2014-Jul-20 21:33N 47°34' W 052°42'0 0.0
2014-Jul-20 20:31N 47°34' W 052°42'0 0.0
2014-Jul-20 19:29N 47°34' W 052°42'0 0.0
2014-Jul-20 18:33N 47°34' W 052°42'0 0.0
2014-Jul-20 17:32N 47°34' W 052°42'0 0.2
2014-Jul-20 16:30N 47°34' W 052°42'1 0.5
2014-Jul-20 15:29N 47°34' W 052°42'0 0.0
2014-Jul-20 14:33N 47°34' W 052°42'0 0.0
2014-Jul-20 13:32N 47°34' W 052°42'0 0.0
2014-Jul-20 12:26N 47°34' W 052°42'0 0.0
2014-Jul-20 11:25N 47°34' W 052°42'0 0.0
2014-Jul-20 10:30N 47°34' W 052°42'0 0.0
2014-Jul-20 09:29N 47°34' W 052°42'1011.3
2014-Jul-20 08:33N 47°32' W 052°27'1413.5
2014-Jul-20 07:32N 47°28' W 052°07'  
Track history (hours):
 
Tides and Currents Weather Stations Pressure Air Temp Water Temp Dewpoint Dewpoint Depression Visibility Wind Speed Wind Dir Waves Ship Positions

Maersk Dispatcher

Last reported at 2014-Jul-30 00:28 UTC. Time now 2014-Jul-31 21:46 UTC.
Position N 47°28' W 052°13'.

Length 89 m; draft 6.9 m.

Type: Other ship. MMSI: 316013080.

Date/timePositionNaut miles runAvg speedWind from/ knotsBaromVisibWave heightAir tempDewpointWater temp
2014-Jul-30 00:28N 47°28' W 052°13'1314.1
2014-Jul-29 23:32N 47°33' W 052°31'8 7.8
2014-Jul-29 22:33N 47°34' W 052°42'0 0.0
2014-Jul-29 21:33N 47°34' W 052°42'0 0.0
2014-Jul-29 20:33N 47°34' W 052°42'0 0.0
2014-Jul-29 19:33N 47°34' W 052°42'0 0.0
2014-Jul-29 18:30N 47°34' W 052°42'0 0.0
2014-Jul-29 17:27N 47°34' W 052°42'0 0.0
2014-Jul-29 16:33N 47°34' W 052°42'0 0.0
2014-Jul-29 15:30N 47°34' W 052°42'0 0.0
2014-Jul-29 14:24N 47°34' W 052°42'0 0.0
2014-Jul-29 13:27N 47°34' W 052°42'0 0.0
2014-Jul-29 12:33N 47°34' W 052°42'0 0.0
2014-Jul-29 11:30N 47°34' W 052°42'0 0.0
2014-Jul-29 10:30N 47°34' W 052°42'0 0.0
2014-Jul-29 09:27N 47°34' W 052°42'0 0.0
2014-Jul-29 08:30N 47°34' W 052°42'0 0.0
2014-Jul-29 07:33N 47°34' W 052°42'0 0.0
2014-Jul-29 06:30N 47°34' W 052°42'0 0.0
2014-Jul-29 05:33N 47°34' W 052°42'0 0.0
2014-Jul-29 04:33N 47°34' W 052°42'0 0.0
2014-Jul-29 03:30N 47°34' W 052°42'0 0.0
2014-Jul-29 02:33N 47°34' W 052°42'0 0.0
2014-Jul-29 01:27N 47°34' W 052°42'0 0.0
2014-Jul-29 00:30N 47°34' W 052°42'0 0.0
2014-Jul-28 23:33N 47°34' W 052°42'0 0.0
2014-Jul-28 22:30N 47°34' W 052°42'0 0.0
2014-Jul-28 21:30N 47°34' W 052°42'0 0.0
2014-Jul-28 20:30N 47°34' W 052°42'4 3.6
2014-Jul-28 19:30N 47°35' W 052°37'0 0.0
2014-Jul-28 18:25N 47°35' W 052°37'1 0.7
2014-Jul-28 17:24N 47°35' W 052°37'0 0.4
2014-Jul-28 16:31N 47°35' W 052°38'0 0.0
2014-Jul-28 15:32N 47°35' W 052°38'0 0.0
2014-Jul-28 14:32N 47°35' W 052°38'3 3.0
2014-Jul-28 13:31N 47°34' W 052°42'0 0.0
2014-Jul-28 12:32N 47°34' W 052°42'0 0.0
2014-Jul-28 11:29N 47°34' W 052°42'0 0.0
2014-Jul-28 10:32N 47°34' W 052°42'0 0.0
2014-Jul-28 09:29N 47°34' W 052°42'0 0.0
2014-Jul-28 08:29N 47°34' W 052°42'0 0.0
2014-Jul-28 07:32N 47°34' W 052°42'0 0.0
2014-Jul-28 06:29N 47°34' W 052°42'0 0.0
2014-Jul-28 05:32N 47°34' W 052°42'0 0.0
2014-Jul-28 04:32N 47°34' W 052°42'0 0.0
2014-Jul-28 03:32N 47°34' W 052°42'0 0.0
2014-Jul-28 02:32N 47°34' W 052°42'0 0.0
2014-Jul-28 01:32N 47°34' W 052°42'0 0.0
2014-Jul-28 00:32N 47°34' W 052°42'0 0.0
2014-Jul-27 23:32N 47°34' W 052°42'0 0.0
2014-Jul-27 22:32N 47°34' W 052°42'0 0.0
2014-Jul-27 21:32N 47°34' W 052°42'0 0.0
2014-Jul-27 20:32N 47°34' W 052°42'0 0.0
2014-Jul-27 19:32N 47°34' W 052°42'0 0.0
2014-Jul-27 18:32N 47°34' W 052°42'0 0.0
2014-Jul-27 17:32N 47°34' W 052°42'0 0.0
2014-Jul-27 16:32N 47°34' W 052°42'0 0.0
2014-Jul-27 15:32N 47°34' W 052°42'7 6.4
2014-Jul-27 14:29N 47°33' W 052°32'1011.3
2014-Jul-27 13:33N 47°30' W 052°17'1413.3
2014-Jul-27 12:31N 47°27' W 051°58'6 0.2
2014-Jul-25 23:20N 47°28' W 052°06'1214.1
2014-Jul-25 22:31N 47°31' W 052°23'1312.9
2014-Jul-25 21:30N 47°34' W 052°42'0 0.3
2014-Jul-25 20:33N 47°34' W 052°42'0 0.0
2014-Jul-25 19:33N 47°34' W 052°42'0 0.0
2014-Jul-25 18:31N 47°34' W 052°42'0 0.0
2014-Jul-25 17:31N 47°34' W 052°42'0 0.0
2014-Jul-25 16:28N 47°34' W 052°42'0 0.0
2014-Jul-25 15:31N 47°34' W 052°42'0 0.0
2014-Jul-25 14:28N 47°34' W 052°42'0 0.0
2014-Jul-25 13:28N 47°34' W 052°42'0 0.0
2014-Jul-25 12:31N 47°34' W 052°42'0 0.0
2014-Jul-25 11:31N 47°34' W 052°42'0 0.0
2014-Jul-25 10:28N 47°34' W 052°42'0 0.0
2014-Jul-25 09:28N 47°34' W 052°42'0 0.0
2014-Jul-25 08:31N 47°34' W 052°42'0 0.0
2014-Jul-25 07:28N 47°34' W 052°42'0 0.0
2014-Jul-25 06:28N 47°34' W 052°42'0 0.0
2014-Jul-25 05:28N 47°34' W 052°42'0 0.0
2014-Jul-25 04:28N 47°34' W 052°42'0 0.0
2014-Jul-25 03:28N 47°34' W 052°42'0 0.0
2014-Jul-25 02:28N 47°34' W 052°42'0 0.0
2014-Jul-25 01:28N 47°34' W 052°42'0 0.0
2014-Jul-25 00:31N 47°34' W 052°42'0 0.0
2014-Jul-24 23:28N 47°34' W 052°42'0 0.0
2014-Jul-24 22:28N 47°34' W 052°42'0 0.0
2014-Jul-24 21:31N 47°34' W 052°42'0 0.0
2014-Jul-24 20:31N 47°34' W 052°42'0 0.0
2014-Jul-24 19:28N 47°34' W 052°42'0 0.0
2014-Jul-24 18:28N 47°34' W 052°42'0 0.0
2014-Jul-24 17:28N 47°34' W 052°42'3 3.1
2014-Jul-24 16:29N 47°33' W 052°38'0 0.2
2014-Jul-24 15:33N 47°33' W 052°38'0 0.0
2014-Jul-24 14:32N 47°33' W 052°38'0 0.1
2014-Jul-24 13:33N 47°33' W 052°38'1 1.1
2014-Jul-24 12:32N 47°33' W 052°40'2 2.2
2014-Jul-24 11:33N 47°34' W 052°42'0 0.0
2014-Jul-24 10:30N 47°34' W 052°42'0 0.2
2014-Jul-24 09:33N 47°34' W 052°42'0 0.0
2014-Jul-24 08:33N 47°34' W 052°42'0 0.0
2014-Jul-24 07:33N 47°34' W 052°42'0 0.0
2014-Jul-24 06:33N 47°34' W 052°42'0 0.0
2014-Jul-24 05:33N 47°34' W 052°42'0 0.0
2014-Jul-24 04:33N 47°34' W 052°42'0 0.0
2014-Jul-24 03:33N 47°34' W 052°42'0 0.0
2014-Jul-24 02:33N 47°34' W 052°42'0 0.0
2014-Jul-24 01:33N 47°34' W 052°42'0 0.0
2014-Jul-24 00:30N 47°34' W 052°42'0 0.0
2014-Jul-23 23:33N 47°34' W 052°42'0 0.0
2014-Jul-23 22:30N 47°34' W 052°42'0 0.0
2014-Jul-23 21:30N 47°34' W 052°42'0 0.0
2014-Jul-23 20:33N 47°34' W 052°42'0 0.0
2014-Jul-23 19:27N 47°34' W 052°42'0 0.0
2014-Jul-23 18:33N 47°34' W 052°42'0 0.0
2014-Jul-23 17:33N 47°34' W 052°42'0 0.0
2014-Jul-23 16:27N 47°34' W 052°42'0 0.0
2014-Jul-23 15:30N 47°34' W 052°42'0 0.0
2014-Jul-23 14:31N 47°34' W 052°42'0 0.2
2014-Jul-23 13:28N 47°34' W 052°42'0 0.0
2014-Jul-23 12:28N 47°34' W 052°42'0 0.0
2014-Jul-23 11:25N 47°34' W 052°42'0 0.0
2014-Jul-23 10:28N 47°34' W 052°42'0 0.2
2014-Jul-23 09:28N 47°34' W 052°42'0 0.0
2014-Jul-23 08:28N 47°34' W 052°42'0 0.0
2014-Jul-23 07:28N 47°34' W 052°42'0 0.0
2014-Jul-23 06:22N 47°34' W 052°42'0 0.0
2014-Jul-23 05:10N 47°34' W 052°42'0 0.0
2014-Jul-23 04:28N 47°34' W 052°42'0 0.0
2014-Jul-23 03:16N 47°34' W 052°42'0 0.0
2014-Jul-23 01:28N 47°34' W 052°42'0 0.0
2014-Jul-23 00:22N 47°34' W 052°42'0 0.0
2014-Jul-22 23:28N 47°34' W 052°42'0 0.0
2014-Jul-22 22:22N 47°34' W 052°42'0 0.0
2014-Jul-22 21:28N 47°34' W 052°42'0 0.0
2014-Jul-22 20:25N 47°34' W 052°42'0 0.0
2014-Jul-22 19:25N 47°34' W 052°42'0 0.0
2014-Jul-22 18:25N 47°34' W 052°42'0 0.0
2014-Jul-22 17:31N 47°34' W 052°42'0 0.0
2014-Jul-22 16:22N 47°34' W 052°42'0 0.0
2014-Jul-22 15:28N 47°34' W 052°42'0 0.0
2014-Jul-22 14:28N 47°34' W 052°42'0 0.0
2014-Jul-22 13:28N 47°34' W 052°42'0 0.0
2014-Jul-22 12:28N 47°34' W 052°42'0 0.0
2014-Jul-22 11:28N 47°34' W 052°42'0 0.0
2014-Jul-22 10:28N 47°34' W 052°42'0 0.0
2014-Jul-22 09:28N 47°34' W 052°42'0 0.0
2014-Jul-22 08:16N 47°34' W 052°42'0 0.0
2014-Jul-22 07:28N 47°34' W 052°42'0 0.0
2014-Jul-22 06:28N 47°34' W 052°42'0 0.0
2014-Jul-22 05:28N 47°34' W 052°42'0 0.0
2014-Jul-22 04:16N 47°34' W 052°42'0 0.0
2014-Jul-22 03:28N 47°34' W 052°42'0 0.0
2014-Jul-22 02:28N 47°34' W 052°42'0 0.0
2014-Jul-22 01:28N 47°34' W 052°42'0 0.0
2014-Jul-22 00:22N 47°34' W 052°42'0 0.0
2014-Jul-21 23:28N 47°34' W 052°42'0 0.0
2014-Jul-21 22:28N 47°34' W 052°42'0 0.0
2014-Jul-21 21:16N 47°34' W 052°42'0 0.0
2014-Jul-21 20:28N 47°34' W 052°42'0 0.0
2014-Jul-21 20:13N 47°34' W 052°42'0 0.4
2014-Jul-21 19:32N 47°34' W 052°42'0 0.0
2014-Jul-21 18:33N 47°34' W 052°42'0 0.2
2014-Jul-21 17:29N 47°34' W 052°42'0 0.0
2014-Jul-21 16:30N 47°34' W 052°42'0 0.0
2014-Jul-21 15:33N 47°34' W 052°42'0 0.0
2014-Jul-21 14:32N 47°34' W 052°42'0 0.0
2014-Jul-21 13:31N 47°34' W 052°42'0 0.0
2014-Jul-21 12:30N 47°34' W 052°42'0 0.0
2014-Jul-21 11:32N 47°34' W 052°42'0 0.0
2014-Jul-21 10:25N 47°34' W 052°42'0 0.0
2014-Jul-21 09:29N 47°34' W 052°42'0 0.0
2014-Jul-21 08:29N 47°34' W 052°42'0 0.0
2014-Jul-21 07:32N 47°34' W 052°42'0 0.0
2014-Jul-21 06:32N 47°34' W 052°42'0 0.0
2014-Jul-21 05:31N 47°34' W 052°42'0 0.0
2014-Jul-21 04:30N 47°34' W 052°42'0 0.0
2014-Jul-21 03:29N 47°34' W 052°42'0 0.0
2014-Jul-21 02:32N 47°34' W 052°42'0 0.0
2014-Jul-21 01:31N 47°34' W 052°42'0 0.0
2014-Jul-21 00:25N 47°34' W 052°42'0 0.0
2014-Jul-20 23:29N 47°34' W 052°42'0 0.0
2014-Jul-20 22:29N 47°34' W 052°42'0 0.4
2014-Jul-20 21:33N 47°34' W 052°42'0 0.0
2014-Jul-20 20:31N 47°34' W 052°42'0 0.0
2014-Jul-20 19:29N 47°34' W 052°42'0 0.0
2014-Jul-20 18:33N 47°34' W 052°42'0 0.0
2014-Jul-20 17:32N 47°34' W 052°42'0 0.2
2014-Jul-20 16:30N 47°34' W 052°42'1 0.5
2014-Jul-20 15:29N 47°34' W 052°42'0 0.0
2014-Jul-20 14:33N 47°34' W 052°42'0 0.0
2014-Jul-20 13:32N 47°34' W 052°42'0 0.0
2014-Jul-20 12:26N 47°34' W 052°42'0 0.0
2014-Jul-20 11:25N 47°34' W 052°42'0 0.0
2014-Jul-20 10:30N 47°34' W 052°42'0 0.0
2014-Jul-20 09:29N 47°34' W 052°42'1011.3
2014-Jul-20 08:33N 47°32' W 052°27'1413.5
2014-Jul-20 07:32N 47°28' W 052°07'  

Dump ship's entire track history